createdAt,value
2019-04-07T00:01:47.778Z,14.65
2019-04-07T00:04:21.630Z,15.98
2019-04-07T00:06:55.450Z,15.50
2019-04-07T00:09:29.784Z,17.05
2019-04-07T00:12:03.655Z,16.50
2019-04-07T00:14:37.983Z,14.98
2019-04-07T00:17:12.149Z,14.65
2019-04-07T00:19:46.066Z,15.90
2019-04-07T00:22:19.965Z,14.40
2019-04-07T00:24:53.965Z,19.10
2019-04-07T00:27:27.719Z,14.58
2019-04-07T00:30:01.953Z,15.35
2019-04-07T00:32:35.814Z,16.07
2019-04-07T00:35:21.563Z,15.40
2019-04-07T00:37:45.280Z,16.60
2019-04-07T00:40:19.600Z,19.25
2019-04-07T00:42:53.486Z,18.10
2019-04-07T00:45:27.125Z,18.15
2019-04-07T00:48:02.038Z,15.60
2019-04-07T00:50:37.547Z,18.27
2019-04-07T00:53:11.181Z,18.90
2019-04-07T00:55:45.027Z,18.10
2019-04-07T00:58:19.199Z,17.25
2019-04-07T01:00:53.019Z,18.10
2019-04-07T01:03:27.588Z,19.62
2019-04-07T01:06:02.166Z,17.45
2019-04-07T01:08:36.127Z,18.42
2019-04-07T01:11:09.943Z,17.50
2019-04-07T01:13:43.680Z,21.17
2019-04-07T01:16:17.472Z,16.50
2019-04-07T01:18:51.337Z,18.62
2019-04-07T01:21:25.743Z,18.62
2019-04-07T01:23:59.346Z,19.42
2019-04-07T01:26:33.086Z,19.90
2019-04-07T01:29:08.077Z,21.55
2019-04-07T01:31:42.257Z,18.07
2019-04-07T01:34:16.110Z,17.55
2019-04-07T01:36:50.094Z,20.37
2019-04-07T01:39:24.096Z,20.60
2019-04-07T01:42:16.348Z,19.60
2019-04-07T01:45:07.541Z,20.80
2019-04-07T01:47:47.793Z,19.57
2019-04-07T01:50:39.467Z,22.45
2019-04-07T01:53:37.750Z,20.62
2019-04-07T01:56:26.320Z,20.50
2019-04-07T01:59:17.260Z,19.62
2019-04-07T02:02:06.018Z,21.87
2019-04-07T02:04:51.347Z,20.25
2019-04-07T02:07:33.754Z,19.65
2019-04-07T02:10:32.982Z,20.43
2019-04-07T02:13:27.499Z,22.85
2019-04-07T02:16:20.397Z,19.90
2019-04-07T02:19:13.033Z,22.87
2019-04-07T02:22:08.696Z,20.15
2019-04-07T02:24:58.716Z,25.32
2019-04-07T02:27:45.857Z,21.82
2019-04-07T02:30:44.779Z,24.82
2019-04-07T02:33:42.498Z,21.65
2019-04-07T02:36:35.772Z,25.55
2019-04-07T02:39:39.165Z,22.45
2019-04-07T02:42:40.894Z,23.42
2019-04-07T02:45:32.279Z,25.57
2019-04-07T02:48:24.167Z,23.12
2019-04-07T02:51:22.909Z,23.12
2019-04-07T02:54:34.584Z,23.75
2019-04-07T02:57:31.908Z,24.67
2019-04-07T03:00:24.642Z,22.90
2019-04-07T03:03:36.837Z,26.42
2019-04-07T03:06:47.119Z,23.32
2019-04-07T03:09:31.086Z,25.43
2019-04-07T03:12:25.136Z,25.52
2019-04-07T03:15:06.977Z,24.82
2019-04-07T03:17:54.344Z,24.18
2019-04-07T03:20:49.526Z,24.35
2019-04-07T03:23:37.198Z,26.70
2019-04-07T03:26:47.906Z,25.43
2019-04-07T03:29:33.338Z,25.82
2019-04-07T03:32:27.758Z,25.20
2019-04-07T03:35:32.842Z,26.73
2019-04-07T03:38:27.458Z,27.58
2019-04-07T03:41:16.231Z,26.07
2019-04-07T03:44:01.435Z,25.30
2019-04-07T03:46:58.945Z,24.40
2019-04-07T03:49:47.956Z,27.93
2019-04-07T03:52:56.520Z,27.52
2019-04-07T03:55:49.511Z,29.60
2019-04-07T03:58:40.106Z,27.15
2019-04-07T04:01:33.136Z,26.95
2019-04-07T04:04:31.671Z,27.02
2019-04-07T04:07:28.422Z,26.27
2019-04-07T04:10:12.301Z,30.45
2019-04-07T04:13:14.379Z,26.40
2019-04-07T04:15:54.264Z,27.73
2019-04-07T04:18:28.652Z,25.55
2019-04-07T04:21:03.497Z,25.57
2019-04-07T04:23:40.050Z,28.00
2019-04-07T04:26:15.147Z,27.62
2019-04-07T04:28:48.964Z,29.52
2019-04-07T04:31:22.921Z,26.70
2019-04-07T04:33:56.658Z,27.02
2019-04-07T04:36:31.404Z,28.42
2019-04-07T04:39:07.063Z,28.80
2019-04-07T04:41:42.606Z,26.12
2019-04-07T04:44:16.589Z,26.77
2019-04-07T04:46:50.366Z,27.55
2019-04-07T04:49:24.074Z,25.60
2019-04-07T04:51:58.655Z,27.65
2019-04-07T04:54:33.407Z,23.60
2019-04-07T04:57:09.132Z,26.52
2019-04-07T04:59:42.939Z,28.00
2019-04-07T05:02:17.151Z,28.02
2019-04-07T05:04:51.588Z,29.27
2019-04-07T05:07:25.336Z,29.10
2019-04-07T05:09:59.996Z,27.05
2019-04-07T05:12:33.988Z,24.60
2019-04-07T05:15:09.726Z,28.45
2019-04-07T05:17:44.635Z,25.48
2019-04-07T05:20:19.472Z,29.07
2019-04-07T05:22:53.449Z,26.23
2019-04-07T05:25:27.463Z,24.30
2019-04-07T05:28:01.271Z,24.27
2019-04-07T05:30:36.498Z,28.45
2019-04-07T05:33:11.054Z,26.42
2019-04-07T05:35:44.993Z,23.38
2019-04-07T05:38:19.143Z,23.12
2019-04-07T05:40:53.122Z,27.00
2019-04-07T05:43:27.383Z,21.77
2019-04-07T05:46:01.713Z,27.00
2019-04-07T05:48:35.610Z,28.05
2019-04-07T05:51:09.778Z,24.25
2019-04-07T05:53:46.311Z,28.05
2019-04-07T05:56:19.755Z,38.02
2019-04-07T05:58:53.804Z,43.85
2019-04-07T06:01:27.629Z,67.12
2019-04-07T06:04:02.432Z,50.35
2019-04-07T06:06:36.812Z,54.10
2019-04-07T06:09:12.122Z,73.00
2019-04-07T06:11:46.440Z,70.50
2019-04-07T06:14:20.530Z,55.43
2019-04-07T06:16:55.482Z,49.10
2019-04-07T06:19:29.506Z,52.40
2019-04-07T06:22:03.447Z,57.70
2019-04-07T06:24:37.127Z,48.85
2019-04-07T06:27:11.019Z,52.95
2019-04-07T06:29:44.801Z,47.17
2019-04-07T06:32:19.225Z,52.48
2019-04-07T06:34:54.094Z,45.08
2019-04-07T06:37:29.461Z,53.48
2019-04-07T06:40:03.571Z,45.17
2019-04-07T06:42:37.585Z,41.28
2019-04-07T06:45:13.165Z,44.93
2019-04-07T06:47:50.725Z,36.60
2019-04-07T06:51:00.477Z,44.25
2019-04-07T06:53:48.773Z,39.20
2019-04-07T06:56:40.116Z,41.63
2019-04-07T06:59:37.278Z,44.08
2019-04-07T07:02:36.825Z,35.73
2019-04-07T07:05:28.800Z,44.05
2019-04-07T07:08:12.634Z,37.35
2019-04-07T07:11:10.342Z,37.55
2019-04-07T07:14:00.353Z,37.23
2019-04-07T07:17:02.953Z,39.42
2019-04-07T07:19:56.626Z,31.48
2019-04-07T07:22:40.275Z,35.98
2019-04-07T07:25:13.504Z,36.42
2019-04-07T07:27:47.797Z,36.05
2019-04-07T07:30:23.486Z,38.60
2019-04-07T07:32:57.334Z,44.00
2019-04-07T07:35:32.255Z,37.93
2019-04-07T07:38:06.145Z,34.67
2019-04-07T07:40:40.597Z,36.20
2019-04-07T07:43:14.462Z,34.98
2019-04-07T07:45:48.662Z,32.33
2019-04-07T07:48:26.224Z,34.15
2019-04-07T07:50:58.033Z,31.20
2019-04-07T07:53:32.752Z,30.82
2019-04-07T07:56:10.725Z,30.08
2019-04-07T07:58:42.606Z,33.40
2019-04-07T08:01:17.764Z,27.58
2019-04-07T08:03:53.033Z,28.80
2019-04-07T08:06:27.164Z,31.70
2019-04-07T08:09:09.836Z,32.78
2019-04-07T08:11:37.305Z,32.38
2019-04-07T08:14:14.517Z,32.93
2019-04-07T08:16:46.540Z,28.92
2019-04-07T08:19:21.097Z,32.98
2019-04-07T08:21:55.255Z,32.70
2019-04-07T08:24:29.316Z,31.12
2019-04-07T08:27:05.123Z,32.78
2019-04-07T08:29:39.805Z,35.20
2019-04-07T08:32:13.635Z,38.58
2019-04-07T08:34:47.314Z,34.25
2019-04-07T08:37:21.885Z,33.33
2019-04-07T08:39:56.983Z,33.00
2019-04-07T08:42:31.476Z,34.70
2019-04-07T08:45:05.767Z,30.68
2019-04-07T08:47:40.225Z,31.77
2019-04-07T08:50:15.167Z,33.15
2019-04-07T08:52:48.909Z,35.50
2019-04-07T08:55:23.624Z,33.10
2019-04-07T08:58:00.079Z,31.23
2019-04-07T09:00:34.908Z,33.00
2019-04-07T09:03:13.196Z,34.05
2019-04-07T09:05:45.610Z,29.77
2019-04-07T09:08:20.337Z,34.70
2019-04-07T09:11:12.955Z,31.85
2019-04-07T09:13:51.500Z,32.65
2019-04-07T09:16:53.240Z,33.25
2019-04-07T09:19:36.070Z,32.45
2019-04-07T09:22:29.705Z,34.98
2019-04-07T09:25:28.297Z,34.90
2019-04-07T09:28:11.225Z,33.30
2019-04-07T09:31:23.315Z,30.82
2019-04-07T09:34:21.170Z,31.85
2019-04-07T09:37:04.463Z,31.52
2019-04-07T09:40:03.084Z,32.17
2019-04-07T09:42:43.625Z,32.42
2019-04-07T09:45:25.427Z,31.90
2019-04-07T09:48:24.013Z,29.77
2019-04-07T09:51:15.451Z,31.90
2019-04-07T09:54:08.125Z,32.75
2019-04-07T09:56:52.795Z,31.15
2019-04-07T09:59:42.866Z,30.80
2019-04-07T10:02:35.465Z,30.95
2019-04-07T10:05:26.032Z,30.05
2019-04-07T10:08:28.192Z,31.68
2019-04-07T10:11:23.882Z,31.25
2019-04-07T10:14:13.872Z,33.05
2019-04-07T10:16:58.018Z,30.92
2019-04-07T10:19:50.062Z,33.13
2019-04-07T10:22:34.066Z,36.33
2019-04-07T10:25:28.948Z,32.58
2019-04-07T10:28:13.753Z,37.65
2019-04-07T10:30:55.067Z,33.25
2019-04-07T10:33:57.199Z,32.88
2019-04-07T10:36:49.152Z,33.73
2019-04-07T10:39:33.678Z,31.23
2019-04-07T10:42:19.009Z,30.68
2019-04-07T10:45:11.931Z,31.10
2019-04-07T10:47:58.372Z,28.47
2019-04-07T10:51:00.632Z,31.65
2019-04-07T10:53:52.748Z,32.08
2019-04-07T10:56:37.343Z,34.33
2019-04-07T10:59:17.480Z,32.35
2019-04-07T11:02:16.865Z,30.10
2019-04-07T11:05:15.612Z,30.20
2019-04-07T11:08:23.489Z,32.53
2019-04-07T11:11:33.115Z,32.00
2019-04-07T11:14:16.250Z,29.77
2019-04-07T11:17:12.386Z,31.57
2019-04-07T11:20:08.318Z,33.92
2019-04-07T11:23:18.934Z,32.53
2019-04-07T11:26:18.059Z,31.50
2019-04-07T11:28:56.832Z,29.95
2019-04-07T11:31:45.013Z,31.20
2019-04-07T11:34:31.438Z,28.92
2019-04-07T11:37:14.328Z,29.30
2019-04-07T11:40:07.003Z,30.45
2019-04-07T11:42:55.840Z,29.90
2019-04-07T11:45:39.111Z,31.50
2019-04-07T11:48:39.423Z,31.93
2019-04-07T11:51:22.699Z,30.35
2019-04-07T11:54:27.329Z,29.25
2019-04-07T11:57:17.078Z,28.67
2019-04-07T12:00:14.483Z,32.13
2019-04-07T12:03:01.093Z,29.90
2019-04-07T12:05:46.612Z,29.40
2019-04-07T12:08:36.216Z,28.85
2019-04-07T12:11:46.438Z,28.80
2019-04-07T12:14:45.480Z,30.72
2019-04-07T12:17:49.134Z,28.00
2019-04-07T12:20:39.166Z,28.65
2019-04-07T12:23:29.096Z,29.23
2019-04-07T12:26:12.846Z,27.22
2019-04-07T12:29:12.407Z,28.57
2019-04-07T12:32:18.128Z,26.42
2019-04-07T12:35:20.320Z,26.70
2019-04-07T12:38:16.572Z,26.45
2019-04-07T12:41:15.130Z,26.82
2019-04-07T12:44:08.179Z,25.97
2019-04-07T12:46:55.735Z,30.10
2019-04-07T12:49:47.380Z,28.27
2019-04-07T12:52:38.844Z,25.77
2019-04-07T12:55:19.476Z,25.50
2019-04-07T12:58:11.747Z,25.85
2019-04-07T13:00:59.929Z,27.90
2019-04-07T13:03:41.606Z,25.55
2019-04-07T13:06:33.299Z,25.55
2019-04-07T13:09:29.640Z,25.60
2019-04-07T13:12:38.746Z,27.50
2019-04-07T13:15:32.222Z,29.67
2019-04-07T13:18:37.226Z,27.20
2019-04-07T13:21:34.101Z,28.70
2019-04-07T13:24:28.375Z,28.32
2019-04-07T13:27:09.135Z,29.15
2019-04-07T13:30:01.815Z,29.23
2019-04-07T13:32:50.019Z,27.80
2019-04-07T13:35:42.098Z,26.33
2019-04-07T13:38:26.256Z,27.07
2019-04-07T13:41:09.416Z,28.90
2019-04-07T13:43:53.491Z,26.17
2019-04-07T13:46:38.765Z,25.62
2019-04-07T13:49:41.350Z,26.87
2019-04-07T13:52:25.113Z,25.37
2019-04-07T13:55:17.350Z,25.10
2019-04-07T13:58:12.940Z,26.90
2019-04-07T14:01:08.475Z,26.95
2019-04-07T14:04:00.222Z,33.58
2019-04-07T14:06:45.911Z,28.73
2019-04-07T14:09:37.431Z,26.17
2019-04-07T14:12:32.353Z,30.48
2019-04-07T14:15:24.750Z,25.05
2019-04-07T14:18:24.527Z,25.90
2019-04-07T14:21:09.410Z,27.13
2019-04-07T14:24:02.536Z,26.60
2019-04-07T14:26:48.999Z,23.77
2019-04-07T14:29:41.743Z,26.20
2019-04-07T14:32:40.470Z,22.93
2019-04-07T14:35:51.383Z,26.70
2019-04-07T14:38:50.893Z,23.90
2019-04-07T14:41:31.910Z,24.57
2019-04-07T14:44:40.167Z,21.00
2019-04-07T14:47:38.952Z,23.22
2019-04-07T14:50:28.467Z,22.37
2019-04-07T14:53:18.173Z,20.08
2019-04-07T14:56:20.657Z,19.82
2019-04-07T14:59:29.589Z,21.80
2019-04-07T15:02:04.216Z,18.15
2019-04-07T15:04:54.359Z,16.05
2019-04-07T15:07:48.866Z,16.32
2019-04-07T15:10:28.899Z,22.27
2019-04-07T15:13:05.619Z,16.40
2019-04-07T15:15:39.997Z,16.27
2019-04-07T15:18:13.730Z,18.80
2019-04-07T15:20:47.424Z,19.12
2019-04-07T15:23:21.810Z,18.85
2019-04-07T15:25:55.469Z,16.05
2019-04-07T15:28:31.419Z,16.40
2019-04-07T15:31:04.740Z,13.83
2019-04-07T15:33:38.519Z,16.12
2019-04-07T15:36:12.891Z,16.00
2019-04-07T15:38:47.569Z,23.10
2019-04-07T15:41:22.210Z,21.77
2019-04-07T15:43:55.916Z,17.57
2019-04-07T15:46:29.843Z,24.23
2019-04-07T15:49:04.076Z,19.25
2019-04-07T15:51:39.897Z,13.40
2019-04-07T15:54:14.605Z,24.50
2019-04-07T15:56:50.170Z,17.55
2019-04-07T15:59:24.869Z,17.20
2019-04-07T16:01:58.763Z,16.82
2019-04-07T16:04:34.760Z,16.20
2019-04-07T16:07:26.256Z,23.10
2019-04-07T16:10:01.923Z,58.02
2019-04-07T16:12:53.728Z,93.92
2019-04-07T16:15:38.409Z,114.45
2019-04-07T16:18:12.624Z,86.60
2019-04-07T16:20:46.667Z,90.22
2019-04-07T16:23:20.942Z,76.75
2019-04-07T16:25:58.367Z,69.17
2019-04-07T16:28:31.884Z,63.78
2019-04-07T16:31:06.559Z,64.22
2019-04-07T16:33:41.274Z,88.33
2019-04-07T16:36:15.039Z,160.25
2019-04-07T16:38:48.892Z,282.68
2019-04-07T16:41:23.660Z,247.88
2019-04-07T16:43:57.528Z,212.10
2019-04-07T16:46:31.585Z,159.00
2019-04-07T16:49:05.477Z,142.18
2019-04-07T16:51:39.330Z,133.60
2019-04-07T16:54:13.270Z,144.15
2019-04-07T16:56:53.166Z,144.20
2019-04-07T16:59:43.426Z,159.75
2019-04-07T17:02:19.245Z,152.55
2019-04-07T17:05:01.367Z,140.50
2019-04-07T17:07:55.537Z,146.95
2019-04-07T17:10:32.787Z,123.75
2019-04-07T17:13:19.876Z,123.55
2019-04-07T17:16:05.894Z,125.38
2019-04-07T17:18:57.424Z,126.22
2019-04-07T17:21:49.073Z,118.65
2019-04-07T17:24:24.929Z,126.58
2019-04-07T17:26:58.330Z,115.05
2019-04-07T17:29:32.154Z,110.32
2019-04-07T17:32:06.049Z,97.90
2019-04-07T17:34:41.733Z,103.62
2019-04-07T17:37:13.255Z,104.72
2019-04-07T17:39:51.563Z,96.65
2019-04-07T17:42:28.043Z,98.65
2019-04-07T17:45:21.280Z,90.72
2019-04-07T17:48:14.716Z,93.33
2019-04-07T17:51:15.443Z,87.10
2019-04-07T17:54:07.863Z,93.30
2019-04-07T17:57:05.283Z,91.82
2019-04-07T17:59:57.138Z,88.80
2019-04-07T18:02:44.141Z,82.53
2019-04-07T18:05:41.432Z,83.05
2019-04-07T18:08:34.284Z,85.97
2019-04-07T18:11:30.147Z,74.72
2019-04-07T18:14:30.015Z,68.75
2019-04-07T18:17:26.785Z,70.03
2019-04-07T18:20:19.968Z,82.57
2019-04-07T18:23:24.056Z,74.07
2019-04-07T18:26:14.420Z,74.27
2019-04-07T18:29:14.741Z,70.03
2019-04-07T18:32:09.789Z,72.80
2019-04-07T18:34:58.397Z,66.15
2019-04-07T18:37:49.228Z,64.62
2019-04-07T18:40:31.853Z,67.22
2019-04-07T18:43:27.817Z,62.90
2019-04-07T18:46:39.951Z,66.30
2019-04-07T18:49:25.917Z,60.60
2019-04-07T18:52:14.074Z,68.85
2019-04-07T18:55:04.331Z,67.58
2019-04-07T18:57:52.809Z,58.83
2019-04-07T19:00:52.198Z,55.83
2019-04-07T19:03:51.940Z,58.48
2019-04-07T19:06:31.267Z,57.10
2019-04-07T19:09:18.868Z,59.63
2019-04-07T19:12:18.882Z,48.98
2019-04-07T19:15:09.084Z,54.05
2019-04-07T19:18:05.799Z,48.65
2019-04-07T19:20:58.940Z,52.33
2019-04-07T19:23:49.081Z,50.30
2019-04-07T19:26:41.064Z,46.18
2019-04-07T19:29:32.328Z,47.17
2019-04-07T19:32:25.059Z,48.60
2019-04-07T19:35:21.597Z,41.45
2019-04-07T19:38:19.867Z,46.45
2019-04-07T19:41:11.044Z,46.70
2019-04-07T19:43:56.521Z,46.58
2019-04-07T19:46:48.721Z,43.60
2019-04-07T19:49:45.335Z,42.80
2019-04-07T19:52:52.952Z,41.75
2019-04-07T19:55:42.180Z,42.60
2019-04-07T19:58:39.850Z,43.40
2019-04-07T20:01:20.766Z,42.15
2019-04-07T20:04:12.979Z,38.88
2019-04-07T20:07:15.817Z,39.27
2019-04-07T20:10:07.415Z,35.80
2019-04-07T20:12:52.628Z,36.13
2019-04-07T20:15:56.154Z,36.75
2019-04-07T20:18:59.378Z,36.35
2019-04-07T20:21:55.000Z,37.73
2019-04-07T20:24:48.833Z,37.28
2019-04-07T20:27:31.857Z,38.38
2019-04-07T20:30:37.807Z,35.10
2019-04-07T20:33:29.884Z,37.08
2019-04-07T20:36:29.682Z,34.58
2019-04-07T20:39:22.465Z,33.55
2019-04-07T20:42:15.936Z,32.60
2019-04-07T20:45:19.272Z,33.30
2019-04-07T20:48:10.362Z,34.65
2019-04-07T20:51:02.560Z,31.52
2019-04-07T20:54:02.342Z,33.38
2019-04-07T20:56:52.025Z,34.67
2019-04-07T20:59:55.559Z,32.80
2019-04-07T21:02:45.392Z,34.63
2019-04-07T21:05:37.753Z,30.82
2019-04-07T21:08:43.451Z,32.88
2019-04-07T21:11:31.390Z,30.08
2019-04-07T21:14:11.940Z,33.98
2019-04-07T21:17:10.836Z,30.08
2019-04-07T21:20:05.375Z,30.80
2019-04-07T21:22:54.212Z,30.50
2019-04-07T21:25:45.705Z,29.07
2019-04-07T21:28:26.785Z,30.40
2019-04-07T21:31:26.129Z,30.35
2019-04-07T21:34:33.862Z,32.45
2019-04-07T21:37:24.831Z,32.48
2019-04-07T21:40:20.906Z,31.95
2019-04-07T21:43:14.214Z,29.87
2019-04-07T21:46:11.095Z,32.65
2019-04-07T21:49:04.056Z,35.08
2019-04-07T21:51:53.002Z,34.10
2019-04-07T21:54:38.808Z,30.92
2019-04-07T21:57:30.142Z,33.95
2019-04-07T22:00:16.702Z,30.72
2019-04-07T22:03:08.730Z,28.75
2019-04-07T22:05:49.725Z,29.05
2019-04-07T22:08:34.758Z,30.37
2019-04-07T22:11:09.262Z,29.72
2019-04-07T22:13:43.221Z,29.37
2019-04-07T22:16:16.990Z,28.85
2019-04-07T22:18:51.254Z,31.07
2019-04-07T22:21:25.724Z,32.13
2019-04-07T22:24:01.301Z,30.17
2019-04-07T22:26:35.100Z,28.98
2019-04-07T22:29:09.723Z,30.55
2019-04-07T22:31:46.696Z,28.95
2019-04-07T22:34:22.653Z,30.60
2019-04-07T22:36:56.598Z,28.75
2019-04-07T22:39:31.134Z,29.20
2019-04-07T22:42:06.380Z,28.77
2019-04-07T22:44:40.449Z,29.32
2019-04-07T22:47:15.408Z,26.42
2019-04-07T22:49:50.619Z,29.02
2019-04-07T22:52:24.440Z,27.00
2019-04-07T22:55:01.092Z,27.48
2019-04-07T22:57:33.598Z,30.48
2019-04-07T23:00:10.795Z,27.30
2019-04-07T23:02:44.746Z,28.30
2019-04-07T23:05:19.119Z,28.55
2019-04-07T23:07:53.201Z,28.02
2019-04-07T23:10:27.389Z,26.15
2019-04-07T23:13:01.970Z,25.90
2019-04-07T23:15:41.078Z,26.48
2019-04-07T23:18:11.605Z,28.20
2019-04-07T23:20:45.874Z,31.20
2019-04-07T23:23:19.884Z,28.40
2019-04-07T23:25:53.653Z,29.30
2019-04-07T23:28:27.267Z,27.58
2019-04-07T23:31:01.325Z,26.27
2019-04-07T23:33:34.960Z,27.62
2019-04-07T23:36:09.424Z,33.25
2019-04-07T23:38:43.159Z,29.27
2019-04-07T23:41:18.017Z,30.30
2019-04-07T23:43:52.604Z,28.77
2019-04-07T23:46:27.278Z,29.40
2019-04-07T23:49:02.313Z,25.57
2019-04-07T23:51:36.064Z,27.48
2019-04-07T23:54:14.316Z,25.88
2019-04-07T23:56:48.241Z,30.35
2019-04-07T23:59:22.827Z,27.65
